THA828 ZHCC-ZHHH
Flight info
| Callsign | THA828 |
|---|---|
| Flight time | 0h 54m |
| Altitude | 34100 |
| Route | DUD9Z DUDBI W37 ENLAB |
| Aircraft | B77W/H-SDE1E2E3FGHIJ2J3J4J5M1RWXY/LB1D1 |
Departure
| Time | 2026-04-21 13:22 |
|---|---|
| Airport | Zhengzhou Xinzheng International Airport (ZHCC) |
Arrival
| Time | 2026-04-21 14:17 |
|---|---|
| Airport | Wuhan Tianhe International Airport (ZHHH) |
| Time | Latitude | Longitude | Altitude | Speed | Heading |
|---|---|---|---|---|---|
| 2026-04-21 12:56 | 34.52466 | 113.84279 | 507 ft | 0 kts | 23° |
| 2026-04-21 13:05 | 34.52458 | 113.84275 | 507 ft | 2 kts | 23° |
| 2026-04-21 13:05 | 34.52444 | 113.84268 | 506 ft | 2 kts | 23° |
| 2026-04-21 13:06 | 34.52430 | 113.84261 | 505 ft | 2 kts | 23° |
| 2026-04-21 13:06 | 34.52417 | 113.84255 | 505 ft | 2 kts | 23° |
| 2026-04-21 13:06 | 34.52403 | 113.84247 | 505 ft | 2 kts | 23° |
| 2026-04-21 13:06 | 34.52393 | 113.84242 | 505 ft | 0 kts | 23° |
| 2026-04-21 13:09 | 34.52391 | 113.84241 | 505 ft | 2 kts | 24° |
| 2026-04-21 13:09 | 34.52377 | 113.84232 | 505 ft | 2 kts | 36° |
| 2026-04-21 13:09 | 34.52366 | 113.84221 | 505 ft | 2 kts | 46° |
| 2026-04-21 13:10 | 34.52356 | 113.84207 | 505 ft | 2 kts | 56° |
| 2026-04-21 13:10 | 34.52349 | 113.84192 | 505 ft | 2 kts | 65° |
| 2026-04-21 13:10 | 34.52343 | 113.84175 | 506 ft | 2 kts | 75° |
| 2026-04-21 13:10 | 34.52341 | 113.84158 | 506 ft | 2 kts | 85° |
| 2026-04-21 13:11 | 34.52340 | 113.84139 | 506 ft | 2 kts | 95° |
| 2026-04-21 13:11 | 34.52343 | 113.84122 | 506 ft | 2 kts | 104° |
| 2026-04-21 13:11 | 34.52347 | 113.84105 | 506 ft | 2 kts | 113° |
| 2026-04-21 13:11 | 34.52353 | 113.84087 | 507 ft | 2 kts | 113° |
| 2026-04-21 13:12 | 34.52357 | 113.84077 | 507 ft | 0 kts | 112° |
| 2026-04-21 13:12 | 34.52350 | 113.84097 | 507 ft | 6 kts | 112° |
| 2026-04-21 13:12 | 34.52331 | 113.84156 | 506 ft | 7 kts | 112° |
| 2026-04-21 13:12 | 34.52311 | 113.84217 | 504 ft | 7 kts | 112° |
| 2026-04-21 13:13 | 34.52291 | 113.84275 | 501 ft | 5 kts | 112° |
| 2026-04-21 13:13 | 34.52280 | 113.84306 | 500 ft | 2 kts | 126° |
| 2026-04-21 13:13 | 34.52274 | 113.84312 | 500 ft | 0 kts | 141° |
| 2026-04-21 13:14 | 34.52272 | 113.84313 | 500 ft | 1 kts | 144° |
| 2026-04-21 13:15 | 34.52246 | 113.84327 | 500 ft | 9 kts | 157° |
| 2026-04-21 13:15 | 34.52174 | 113.84399 | 500 ft | 15 kts | 112° |
| 2026-04-21 13:15 | 34.52135 | 113.84519 | 502 ft | 16 kts | 112° |
| 2026-04-21 13:15 | 34.52086 | 113.84663 | 504 ft | 20 kts | 112° |
| 2026-04-21 13:16 | 34.52027 | 113.84843 | 504 ft | 25 kts | 111° |
| 2026-04-21 13:16 | 34.51999 | 113.84998 | 503 ft | 17 kts | 58° |
| 2026-04-21 13:16 | 34.52106 | 113.85063 | 502 ft | 18 kts | 22° |
| 2026-04-21 13:16 | 34.52439 | 113.85236 | 497 ft | 105 kts | 23° |
| 2026-04-21 13:17 | 34.53204 | 113.85735 | 487 ft | 69 kts | 66° |
| 2026-04-21 13:17 | 34.53218 | 113.85880 | 483 ft | 8 kts | 127° |
| 2026-04-21 13:17 | 34.53085 | 113.86066 | 485 ft | 30 kts | 118° |
| 2026-04-21 13:17 | 34.53006 | 113.86295 | 486 ft | 28 kts | 111° |
| 2026-04-21 13:18 | 34.52937 | 113.86511 | 485 ft | 28 kts | 113° |
| 2026-04-21 13:18 | 34.52843 | 113.86761 | 486 ft | 31 kts | 112° |
| 2026-04-21 13:18 | 34.52759 | 113.87009 | 485 ft | 30 kts | 108° |
| 2026-04-21 13:18 | 34.52687 | 113.87237 | 487 ft | 27 kts | 112° |
| 2026-04-21 13:19 | 34.52622 | 113.87427 | 495 ft | 21 kts | 113° |
| 2026-04-21 13:19 | 34.52588 | 113.87523 | 500 ft | 9 kts | 106° |
| 2026-04-21 13:19 | 34.52601 | 113.87608 | 499 ft | 10 kts | 40° |
| 2026-04-21 13:19 | 34.52628 | 113.87623 | 498 ft | 0 kts | 22° |
| 2026-04-21 13:20 | 34.52611 | 113.87611 | 499 ft | 0 kts | 22° |
| 2026-04-21 13:21 | 34.52650 | 113.87631 | 497 ft | 25 kts | 22° |
| 2026-04-21 13:21 | 34.52783 | 113.87523 | 490 ft | 37 kts | 290° |
| 2026-04-21 13:22 | 34.53022 | 113.86789 | 479 ft | 149 kts | 292° |
| 2026-04-21 13:22 | 34.53459 | 113.85248 | 642 ft | 231 kts | 291° |
| 2026-04-21 13:22 | 34.54168 | 113.83343 | 1413 ft | 276 kts | 296° |
| 2026-04-21 13:22 | 34.54968 | 113.81155 | 2393 ft | 276 kts | 294° |
| 2026-04-21 13:23 | 34.55580 | 113.79079 | 2892 ft | 262 kts | 293° |
| 2026-04-21 13:23 | 34.56342 | 113.76918 | 3711 ft | 284 kts | 296° |
| 2026-04-21 13:23 | 34.57075 | 113.74831 | 5291 ft | 274 kts | 295° |
| 2026-04-21 13:23 | 34.57801 | 113.72725 | 6373 ft | 275 kts | 295° |
| 2026-04-21 13:24 | 34.58536 | 113.70565 | 6924 ft | 278 kts | 295° |
| 2026-04-21 13:24 | 34.59259 | 113.68414 | 7021 ft | 278 kts | 292° |
| 2026-04-21 13:24 | 34.59551 | 113.66120 | 7023 ft | 280 kts | 266° |
| 2026-04-21 13:24 | 34.58958 | 113.63867 | 7023 ft | 284 kts | 239° |
| 2026-04-21 13:25 | 34.58858 | 113.63674 | 7023 ft | 285 kts | 237° |
| 2026-04-21 13:25 | 34.57237 | 113.61905 | 7022 ft | 286 kts | 210° |
| 2026-04-21 13:26 | 34.55439 | 113.60832 | 7029 ft | 288 kts | 203° |
| 2026-04-21 13:26 | 34.53590 | 113.59883 | 7029 ft | 287 kts | 202° |
| 2026-04-21 13:26 | 34.51668 | 113.59017 | 7124 ft | 306 kts | 190° |
| 2026-04-21 13:26 | 34.49517 | 113.59034 | 8396 ft | 306 kts | 174° |
| 2026-04-21 13:27 | 34.47483 | 113.59319 | 9985 ft | 295 kts | 174° |
| 2026-04-21 13:27 | 34.45429 | 113.59621 | 11015 ft | 305 kts | 175° |
| 2026-04-21 13:27 | 34.43273 | 113.59937 | 11833 ft | 322 kts | 176° |
| 2026-04-21 13:27 | 34.41022 | 113.60267 | 12641 ft | 337 kts | 176° |
| 2026-04-21 13:28 | 34.38630 | 113.60616 | 13424 ft | 353 kts | 176° |
| 2026-04-21 13:28 | 34.36100 | 113.60985 | 14144 ft | 370 kts | 176° |
| 2026-04-21 13:28 | 34.33469 | 113.61369 | 14854 ft | 388 kts | 176° |
| 2026-04-21 13:28 | 34.30750 | 113.61768 | 15810 ft | 397 kts | 176° |
| 2026-04-21 13:29 | 34.27996 | 113.62174 | 16894 ft | 400 kts | 177° |
| 2026-04-21 13:29 | 34.25228 | 113.62579 | 17767 ft | 409 kts | 176° |
| 2026-04-21 13:29 | 34.22345 | 113.63001 | 18544 ft | 419 kts | 177° |
| 2026-04-21 13:29 | 34.19455 | 113.63425 | 19537 ft | 422 kts | 178° |
| 2026-04-21 13:30 | 34.16562 | 113.63850 | 20520 ft | 425 kts | 178° |
| 2026-04-21 13:30 | 34.13609 | 113.64282 | 21381 ft | 431 kts | 178° |
| 2026-04-21 13:30 | 34.10508 | 113.64735 | 22229 ft | 437 kts | 178° |
| 2026-04-21 13:30 | 34.07448 | 113.65183 | 23030 ft | 443 kts | 179° |
| 2026-04-21 13:31 | 34.04388 | 113.65630 | 23912 ft | 446 kts | 179° |
| 2026-04-21 13:31 | 34.01302 | 113.66082 | 24809 ft | 449 kts | 179° |
| 2026-04-21 13:31 | 33.98204 | 113.66535 | 25746 ft | 452 kts | 179° |
| 2026-04-21 13:31 | 33.95063 | 113.66994 | 26621 ft | 456 kts | 179° |
| 2026-04-21 13:32 | 33.91865 | 113.67460 | 27429 ft | 462 kts | 178° |
| 2026-04-21 13:32 | 33.88634 | 113.67931 | 28225 ft | 467 kts | 178° |
| 2026-04-21 13:32 | 33.85354 | 113.68409 | 28987 ft | 472 kts | 178° |
| 2026-04-21 13:32 | 33.82050 | 113.68891 | 29836 ft | 476 kts | 178° |
| 2026-04-21 13:33 | 33.78761 | 113.69373 | 30848 ft | 474 kts | 179° |
| 2026-04-21 13:33 | 33.75516 | 113.69889 | 31940 ft | 472 kts | 175° |
| 2026-04-21 13:33 | 33.72326 | 113.70892 | 32951 ft | 475 kts | 166° |
| 2026-04-21 13:33 | 33.69323 | 113.72462 | 33811 ft | 480 kts | 157° |
| 2026-04-21 13:34 | 33.66422 | 113.74615 | 34059 ft | 491 kts | 149° |
| 2026-04-21 13:34 | 33.63799 | 113.77324 | 34061 ft | 492 kts | 139° |
| 2026-04-21 13:34 | 33.59520 | 113.83860 | 34056 ft | 501 kts | 129° |
| 2026-04-21 13:35 | 33.55229 | 113.90857 | 34057 ft | 500 kts | 130° |
| 2026-04-21 13:35 | 33.51024 | 113.97591 | 34054 ft | 502 kts | 131° |
| 2026-04-21 13:36 | 33.46835 | 114.04234 | 34051 ft | 500 kts | 131° |
| 2026-04-21 13:36 | 33.42634 | 114.10856 | 34051 ft | 498 kts | 131° |
| 2026-04-21 13:37 | 33.38417 | 114.17485 | 34041 ft | 500 kts | 129° |
| 2026-04-21 13:37 | 33.35171 | 114.24873 | 34056 ft | 509 kts | 114° |
| 2026-04-21 13:38 | 33.32705 | 114.32789 | 34040 ft | 507 kts | 113° |
| 2026-04-21 13:38 | 33.30241 | 114.40723 | 34041 ft | 508 kts | 112° |
| 2026-04-21 13:39 | 33.27784 | 114.48604 | 34037 ft | 508 kts | 112° |
| 2026-04-21 13:39 | 33.24913 | 114.56265 | 34032 ft | 501 kts | 126° |
| 2026-04-21 13:40 | 33.20418 | 114.62564 | 34032 ft | 494 kts | 143° |
| 2026-04-21 13:40 | 33.14674 | 114.66856 | 34014 ft | 474 kts | 162° |
| 2026-04-21 13:41 | 33.08357 | 114.68829 | 34015 ft | 467 kts | 180° |
| 2026-04-21 13:41 | 33.01937 | 114.68949 | 34016 ft | 456 kts | 186° |
| 2026-04-21 13:42 | 32.95575 | 114.68689 | 34015 ft | 456 kts | 188° |
| 2026-04-21 13:42 | 32.89164 | 114.68253 | 34013 ft | 454 kts | 189° |
| 2026-04-21 13:43 | 32.82805 | 114.67744 | 34015 ft | 453 kts | 189° |
| 2026-04-21 13:43 | 32.76493 | 114.67201 | 34008 ft | 456 kts | 190° |
| 2026-04-21 13:44 | 32.70166 | 114.66632 | 34009 ft | 453 kts | 190° |
| 2026-04-21 13:44 | 32.63869 | 114.66053 | 34012 ft | 453 kts | 190° |
| 2026-04-21 13:45 | 32.57565 | 114.65467 | 34010 ft | 453 kts | 190° |
| 2026-04-21 13:45 | 32.51221 | 114.64874 | 34006 ft | 454 kts | 190° |
| 2026-04-21 13:46 | 32.44926 | 114.64285 | 34006 ft | 454 kts | 190° |
| 2026-04-21 13:46 | 32.38626 | 114.63696 | 34006 ft | 454 kts | 190° |
| 2026-04-21 13:47 | 32.32352 | 114.63090 | 34005 ft | 451 kts | 190° |
| 2026-04-21 13:47 | 32.26053 | 114.62474 | 34000 ft | 454 kts | 191° |
| 2026-04-21 13:48 | 32.19681 | 114.61850 | 34001 ft | 471 kts | 191° |
| 2026-04-21 13:48 | 32.16350 | 114.61523 | 34004 ft | 482 kts | 190° |
| 2026-04-21 13:48 | 32.13014 | 114.61199 | 34006 ft | 483 kts | 190° |
| 2026-04-21 13:49 | 32.06282 | 114.60551 | 33951 ft | 476 kts | 190° |
| 2026-04-21 13:49 | 32.03057 | 114.60244 | 33922 ft | 459 kts | 190° |
| 2026-04-21 13:49 | 31.99900 | 114.59943 | 33610 ft | 449 kts | 191° |
| 2026-04-21 13:50 | 31.96812 | 114.59644 | 32838 ft | 449 kts | 191° |
| 2026-04-21 13:50 | 31.93664 | 114.59336 | 31775 ft | 456 kts | 190° |
| 2026-04-21 13:50 | 31.90442 | 114.59021 | 30570 ft | 464 kts | 190° |
| 2026-04-21 13:50 | 31.87199 | 114.58707 | 29726 ft | 464 kts | 190° |
| 2026-04-21 13:51 | 31.83955 | 114.58396 | 29277 ft | 455 kts | 190° |
| 2026-04-21 13:51 | 31.80819 | 114.58096 | 28864 ft | 447 kts | 190° |
| 2026-04-21 13:51 | 31.77732 | 114.57800 | 28296 ft | 443 kts | 190° |
| 2026-04-21 13:51 | 31.74677 | 114.57506 | 27607 ft | 442 kts | 190° |
| 2026-04-21 13:52 | 31.71620 | 114.57210 | 26936 ft | 440 kts | 190° |
| 2026-04-21 13:52 | 31.68558 | 114.56917 | 26354 ft | 436 kts | 190° |
| 2026-04-21 13:52 | 31.65566 | 114.56630 | 25799 ft | 432 kts | 190° |
| 2026-04-21 13:52 | 31.62548 | 114.56340 | 25211 ft | 429 kts | 190° |
| 2026-04-21 13:53 | 31.59591 | 114.56056 | 24606 ft | 426 kts | 190° |
| 2026-04-21 13:53 | 31.56647 | 114.55774 | 23994 ft | 424 kts | 190° |
| 2026-04-21 13:53 | 31.53724 | 114.55493 | 23412 ft | 422 kts | 190° |
| 2026-04-21 13:53 | 31.50813 | 114.55214 | 22857 ft | 419 kts | 190° |
| 2026-04-21 13:54 | 31.47899 | 114.54936 | 22380 ft | 415 kts | 190° |
| 2026-04-21 13:54 | 31.45065 | 114.54665 | 21889 ft | 411 kts | 190° |
| 2026-04-21 13:54 | 31.42198 | 114.54391 | 21345 ft | 409 kts | 190° |
| 2026-04-21 13:54 | 31.39391 | 114.54122 | 20831 ft | 406 kts | 190° |
| 2026-04-21 13:55 | 31.36570 | 114.53854 | 20368 ft | 402 kts | 190° |
| 2026-04-21 13:55 | 31.33811 | 114.53590 | 19896 ft | 398 kts | 190° |
| 2026-04-21 13:55 | 31.31045 | 114.53326 | 19377 ft | 395 kts | 190° |
| 2026-04-21 13:55 | 31.28344 | 114.53027 | 18867 ft | 389 kts | 194° |
| 2026-04-21 13:56 | 31.25727 | 114.52277 | 18319 ft | 381 kts | 204° |
| 2026-04-21 13:56 | 31.23362 | 114.51050 | 17772 ft | 374 kts | 214° |
| 2026-04-21 13:56 | 31.21209 | 114.49356 | 17229 ft | 366 kts | 223° |
| 2026-04-21 13:56 | 31.19312 | 114.47452 | 16781 ft | 361 kts | 225° |
| 2026-04-21 13:57 | 31.17429 | 114.45522 | 16265 ft | 358 kts | 225° |
| 2026-04-21 13:57 | 31.15551 | 114.43598 | 15738 ft | 356 kts | 225° |
| 2026-04-21 13:57 | 31.13706 | 114.41711 | 15198 ft | 354 kts | 225° |
| 2026-04-21 13:57 | 31.11832 | 114.39794 | 14606 ft | 352 kts | 225° |
| 2026-04-21 13:58 | 31.09990 | 114.37913 | 13991 ft | 352 kts | 224° |
| 2026-04-21 13:58 | 31.08173 | 114.36059 | 13424 ft | 350 kts | 224° |
| 2026-04-21 13:58 | 31.06332 | 114.34182 | 12972 ft | 345 kts | 224° |
| 2026-04-21 13:58 | 31.04516 | 114.32332 | 12553 ft | 339 kts | 223° |
| 2026-04-21 13:59 | 31.02758 | 114.30540 | 12073 ft | 336 kts | 223° |
| 2026-04-21 13:59 | 31.01006 | 114.28756 | 11567 ft | 333 kts | 223° |
| 2026-04-21 13:59 | 30.99262 | 114.26981 | 11094 ft | 330 kts | 223° |
| 2026-04-21 13:59 | 30.97560 | 114.25250 | 10622 ft | 326 kts | 223° |
| 2026-04-21 14:00 | 30.95855 | 114.23517 | 10134 ft | 324 kts | 223° |
| 2026-04-21 14:00 | 30.94165 | 114.21799 | 9725 ft | 318 kts | 223° |
| 2026-04-21 14:00 | 30.92544 | 114.20154 | 9591 ft | 305 kts | 223° |
| 2026-04-21 14:00 | 30.90975 | 114.18562 | 9537 ft | 290 kts | 223° |
| 2026-04-21 14:01 | 30.89477 | 114.17042 | 9523 ft | 274 kts | 223° |
| 2026-04-21 14:01 | 30.88058 | 114.15603 | 9531 ft | 260 kts | 223° |
| 2026-04-21 14:01 | 30.86724 | 114.14250 | 9330 ft | 254 kts | 223° |
| 2026-04-21 14:01 | 30.85390 | 114.12896 | 8959 ft | 254 kts | 223° |
| 2026-04-21 14:02 | 30.84055 | 114.11543 | 8574 ft | 255 kts | 223° |
| 2026-04-21 14:02 | 30.82698 | 114.10169 | 8233 ft | 256 kts | 223° |
| 2026-04-21 14:02 | 30.81369 | 114.08823 | 7890 ft | 256 kts | 222° |
| 2026-04-21 14:03 | 30.78676 | 114.06099 | 7219 ft | 255 kts | 222° |
| 2026-04-21 14:03 | 30.77347 | 114.04755 | 6861 ft | 255 kts | 222° |
| 2026-04-21 14:03 | 30.76008 | 114.03401 | 6520 ft | 255 kts | 222° |
| 2026-04-21 14:03 | 30.74667 | 114.02045 | 6193 ft | 254 kts | 221° |
| 2026-04-21 14:04 | 30.73303 | 114.00669 | 5770 ft | 257 kts | 222° |
| 2026-04-21 14:04 | 30.71962 | 113.99315 | 5476 ft | 255 kts | 222° |
| 2026-04-21 14:04 | 30.70626 | 113.97968 | 5221 ft | 252 kts | 223° |
| 2026-04-21 14:04 | 30.69326 | 113.96657 | 5191 ft | 238 kts | 222° |
| 2026-04-21 14:05 | 30.68095 | 113.95418 | 5122 ft | 224 kts | 222° |
| 2026-04-21 14:05 | 30.66938 | 113.94256 | 4817 ft | 220 kts | 222° |
| 2026-04-21 14:05 | 30.66574 | 113.93890 | 4659 ft | 222 kts | 222° |
| 2026-04-21 14:05 | 30.65403 | 113.92713 | 4273 ft | 222 kts | 222° |
| 2026-04-21 14:06 | 30.64244 | 113.91552 | 4095 ft | 218 kts | 222° |
| 2026-04-21 14:06 | 30.63096 | 113.90406 | 3906 ft | 215 kts | 222° |
| 2026-04-21 14:06 | 30.61945 | 113.89255 | 3901 ft | 219 kts | 221° |
| 2026-04-21 14:06 | 30.60791 | 113.88103 | 3916 ft | 220 kts | 221° |
| 2026-04-21 14:07 | 30.59630 | 113.86945 | 3900 ft | 220 kts | 222° |
| 2026-04-21 14:07 | 30.58457 | 113.85774 | 3915 ft | 222 kts | 222° |
| 2026-04-21 14:07 | 30.57267 | 113.84609 | 3902 ft | 223 kts | 216° |
| 2026-04-21 14:07 | 30.55712 | 113.83987 | 3897 ft | 259 kts | 181° |
| 2026-04-21 14:08 | 30.53979 | 113.84560 | 3876 ft | 262 kts | 143° |
| 2026-04-21 14:08 | 30.52875 | 113.86166 | 3898 ft | 260 kts | 108° |
| 2026-04-21 14:08 | 30.52767 | 113.88241 | 3905 ft | 255 kts | 77° |
| 2026-04-21 14:08 | 30.53193 | 113.90210 | 3869 ft | 242 kts | 73° |
| 2026-04-21 14:09 | 30.53613 | 113.91984 | 3899 ft | 218 kts | 72° |
| 2026-04-21 14:09 | 30.54000 | 113.93605 | 3904 ft | 197 kts | 72° |
| 2026-04-21 14:09 | 30.54358 | 113.95102 | 3885 ft | 191 kts | 72° |
| 2026-04-21 14:09 | 30.54710 | 113.96568 | 3937 ft | 186 kts | 72° |
| 2026-04-21 14:10 | 30.55057 | 113.98016 | 3966 ft | 186 kts | 72° |
| 2026-04-21 14:10 | 30.55461 | 113.99472 | 3961 ft | 187 kts | 67° |
| 2026-04-21 14:10 | 30.56064 | 114.00790 | 3980 ft | 185 kts | 53° |
| 2026-04-21 14:10 | 30.56902 | 114.01901 | 3964 ft | 177 kts | 44° |
| 2026-04-21 14:11 | 30.57797 | 114.02876 | 3968 ft | 174 kts | 41° |
| 2026-04-21 14:11 | 30.58706 | 114.03807 | 3977 ft | 174 kts | 40° |
| 2026-04-21 14:11 | 30.59616 | 114.04723 | 3961 ft | 173 kts | 40° |
| 2026-04-21 14:11 | 30.60558 | 114.05669 | 3975 ft | 182 kts | 39° |
| 2026-04-21 14:12 | 30.61525 | 114.06641 | 3800 ft | 184 kts | 40° |
| 2026-04-21 14:12 | 30.62446 | 114.07571 | 3593 ft | 174 kts | 40° |
| 2026-04-21 14:12 | 30.63347 | 114.08482 | 3370 ft | 169 kts | 40° |
| 2026-04-21 14:12 | 30.64228 | 114.09375 | 3148 ft | 166 kts | 40° |
| 2026-04-21 14:13 | 30.65076 | 114.10236 | 2937 ft | 154 kts | 40° |
| 2026-04-21 14:13 | 30.65859 | 114.11030 | 2743 ft | 145 kts | 39° |
| 2026-04-21 14:13 | 30.66611 | 114.11793 | 2550 ft | 141 kts | 39° |
| 2026-04-21 14:13 | 30.67352 | 114.12546 | 2358 ft | 141 kts | 39° |
| 2026-04-21 14:14 | 30.68075 | 114.13278 | 2170 ft | 138 kts | 39° |
| 2026-04-21 14:14 | 30.68800 | 114.14015 | 1977 ft | 137 kts | 38° |
| 2026-04-21 14:14 | 30.69553 | 114.14777 | 1790 ft | 151 kts | 39° |
| 2026-04-21 14:14 | 30.70345 | 114.15586 | 1582 ft | 158 kts | 39° |
| 2026-04-21 14:15 | 30.71204 | 114.16457 | 1349 ft | 166 kts | 40° |
| 2026-04-21 14:15 | 30.72076 | 114.17348 | 1115 ft | 171 kts | 38° |
| 2026-04-21 14:15 | 30.72997 | 114.18262 | 845 ft | 176 kts | 39° |
| 2026-04-21 14:15 | 30.73984 | 114.19244 | 600 ft | 185 kts | 39° |
| 2026-04-21 14:16 | 30.74899 | 114.20175 | 404 ft | 166 kts | 40° |
| 2026-04-21 14:16 | 30.75707 | 114.21014 | 172 ft | 147 kts | 40° |
| 2026-04-21 14:16 | 30.76390 | 114.21711 | 124 ft | 112 kts | 43° |
| 2026-04-21 14:16 | 30.76920 | 114.22219 | 124 ft | 86 kts | 24° |
| 2026-04-21 14:17 | 30.77405 | 114.22414 | 124 ft | 62 kts | 20° |
| 2026-04-21 14:17 | 30.77707 | 114.22648 | 124 ft | 42 kts | 43° |
| 2026-04-21 14:17 | 30.77920 | 114.22879 | 124 ft | 40 kts | 42° |
| 2026-04-21 14:17 | 30.78118 | 114.23081 | 124 ft | 35 kts | 41° |
| 2026-04-21 14:18 | 30.78297 | 114.23261 | 124 ft | 32 kts | 40° |
| 2026-04-21 14:18 | 30.78466 | 114.23423 | 124 ft | 30 kts | 39° |
| 2026-04-21 14:18 | 30.78604 | 114.23556 | 124 ft | 15 kts | 56° |